Detall de PIREP

Printer-friendly versionPDF version

[2014/09/20 06:47:00]
Flight IATA:CT2110
Pilot Number:041
Company ICAO:CAT
Aircraft Type:F100/F
PAX:82
Aircraft Registration:DA
Departing Airport: LEVC
Destination Airport: LEST
Alternate Airport:LEMD
Online: VATSIM
Route:CENTA A33 PRADO UN733 FORNO
Flight Level:FL330
No Slew and time accel
No pause
Crash detect
Detect pilot in Cockpit between each 30 and 45 minutes
06:47 Zero fuel Weight: 80840 Lbs, Fuel Weight: 12921 Lbs
06:47 VATSIM:LEVC 200630Z 29003KT CAVOK 22/15 Q1015 NOSIG
06:47 VATSIM:LEST 200630Z 15009KT 9999 SCT045 15/12 Q1014 NOSIG
06:48 VOICE CATALONIAN
06:58 Parking Brakes off
07:03 Take-off
07:03 Take off Weight: 93174 Lbs
07:03 Wind: 283º @ 002 Knots Heading: 295º
07:03 POS N39º 29´ 32´´ W000º 29´ 22´´
07:03 Gear Up: 165 Knots
07:03 Flaps:1 at 165 Knots
07:03 Gear Down: 169 Knots
07:04 Gear Up: 170 Knots
07:05 Flaps:0 at 164 Knots
07:18 Wind:219º@043 Knots Heading: 292º Ground Speed: 378 Knots Altitude 23415 ft
07:30 TOC
07:30 Fuel Weight: 9242 Lb
07:33 Wind:226º@063 Knots Heading: 288º Ground Speed: 383 Knots Altitude 33179 ft
07:48 Wind:231º@028 Knots Heading: 296º Ground Speed: 395 Knots Altitude 33208 ft
07:53 TOD
07:53 Fuel Weight: 7587 Lb
08:03 Wind:202º@028 Knots Heading: 298º Ground Speed: 283 Knots Altitude 8684 ft
08:10 Flaps:1 at 254 Knots
08:10 Flaps:0 at 249 Knots
08:10 Flaps:1 at 249 Knots
08:18 Wind:150º@008 Knots Heading: 351º Ground Speed: 260 Knots Altitude 4002 ft
08:20 Flaps:2 at 240 Knots
08:21 Flaps:3 at 209 Knots
08:21 Gear Down: 206 Knots
08:22 Flaps:4 at 172 Knots
08:22 TouchDown:Rate -329 ft/min Speed: 122 Knots
08:22 Flaps:0 at 110 Knots
08:23 VATSIM:LEST 200800Z 15009KT 110V180 9999 SCT045 16/13 Q1014 NOSIG
08:23 Land
08:23 Wind:156º@007 Knots
08:23 Heading: 166º
08:23 Flight Duration: 01:20
08:23 Landing Weight: 86680 Lbs
08:23 POS N42º 54´ 13´´ W008º 25´ 03´´
08:25 Parking brakes on
08:25 Block to Block Duration: 01:27
08:25 Final Fuel: 5753 Lbls
08:25 Spent Fuel: 7167 Lbls
08:25 Flight Length: 443 NM
08:25 TOD Land Length: 141 NM

Exportar CSV

Powered by Drupal - Modified by Danger4k